Time;durP1;ratioP1;P1;durP2;ratioP2;P2;SDS_P1;SDS_P2;PMS_P1;PMS_P2;Temp;Humidity;BMP_temperature;BMP_pressure;BME280_temperature;BME280_humidity;BME280_pressure;Samples;Min_cycle;Max_cycle;Signal;HPM_P1;HPM_P2
2023/07/13 00:00:53;;;;;;;4.45;1.95;;;19.00;99.90;;;;;;5014877;28;20222;-78
2023/07/13 00:03:20;;;;;;;5.22;2.17;;;19.10;99.90;;;;;;5031316;28;20202;-78
2023/07/13 00:05:48;;;;;;;6.32;1.80;;;19.00;99.90;;;;;;5031188;28;20556;-78
2023/07/13 00:08:15;;;;;;;4.07;1.70;;;19.30;99.90;;;;;;5014842;28;20227;-78
2023/07/13 00:10:46;;;;;;;5.78;2.15;;;19.50;99.90;;;;;;5014207;28;20210;-79
2023/07/13 00:13:13;;;;;;;6.22;2.03;;;19.30;99.90;;;;;;5028937;28;20199;-78
2023/07/13 00:15:41;;;;;;;4.07;2.00;;;19.20;99.90;;;;;;5030835;28;20214;-78
2023/07/13 00:18:08;;;;;;;4.15;1.95;;;19.10;99.90;;;;;;5014576;28;20226;-78
2023/07/13 00:20:36;;;;;;;6.07;2.20;;;18.90;99.90;;;;;;5015027;28;20219;-78
2023/07/13 00:23:03;;;;;;;4.15;2.15;;;18.90;99.90;;;;;;5018822;28;20207;-78
2023/07/13 00:25:31;;;;;;;6.43;2.40;;;19.00;99.90;;;;;;5052549;28;20206;-78
2023/07/13 00:27:59;;;;;;;6.28;1.90;;;19.00;99.90;;;;;;5028067;28;20222;-78
2023/07/13 00:30:27;;;;;;;7.13;2.30;;;18.90;99.90;;;;;;5035743;28;20191;-78
2023/07/13 00:32:54;;;;;;;4.72;1.95;;;18.80;99.90;;;;;;5019337;28;20199;-78
2023/07/13 00:35:23;;;;;;;5.32;2.45;;;19.00;99.90;;;;;;5018709;28;20195;-78
2023/07/13 00:37:51;;;;;;;6.00;2.45;;;19.00;99.90;;;;;;5036294;28;20226;-78
2023/07/13 00:40:19;;;;;;;4.22;1.98;;;19.10;99.90;;;;;;5017548;28;20219;-78
2023/07/13 00:42:46;;;;;;;5.13;2.28;;;19.00;99.90;;;;;;5036298;28;20209;-78
2023/07/13 00:45:56;;;;;;;4.40;2.30;;;19.00;99.90;;;;;;5031972;28;20205;-78
2023/07/13 00:48:28;;;;;;;3.80;1.70;;;19.00;99.90;;;;;;5023310;28;20227;-78
2023/07/13 00:50:59;;;;;;;2.95;1.70;;;19.00;99.90;;;;;;5036750;28;20203;-78
2023/07/13 00:53:28;;;;;;;3.90;1.50;;;18.90;99.90;;;;;;5036203;28;20294;-79
2023/07/13 00:55:57;;;;;;;4.47;1.70;;;18.90;99.90;;;;;;5034940;28;20207;-78
2023/07/13 00:58:26;;;;;;;4.78;2.05;;;18.80;99.90;;;;;;5034025;28;20222;-78
2023/07/13 01:00:54;;;;;;;7.57;1.85;;;18.80;99.90;;;;;;5032654;28;20207;-78
2023/07/13 01:03:22;;;;;;;2.35;1.67;;;18.70;99.90;;;;;;5035872;28;20551;-79
2023/07/13 01:05:53;;;;;;;3.67;1.48;;;18.60;99.90;;;;;;5038492;28;20195;-78
2023/07/13 01:08:21;;;;;;;4.70;1.70;;;18.50;99.90;;;;;;5021368;28;20222;-78
2023/07/13 01:10:53;;;;;;;3.00;1.70;;;18.60;99.90;;;;;;5022703;28;20199;-78
2023/07/13 01:13:21;;;;;;;5.22;1.92;;;18.70;99.90;;;;;;5033875;28;20676;-78
2023/07/13 01:15:51;;;;;;;4.65;2.22;;;18.50;99.90;;;;;;5022538;28;20199;-78
2023/07/13 01:18:22;;;;;;;3.42;1.50;;;18.50;99.90;;;;;;5031522;28;20218;-78
2023/07/13 01:20:54;;;;;;;2.95;1.88;;;18.50;99.90;;;;;;5030614;28;20216;-78
2023/07/13 01:23:22;;;;;;;4.57;1.83;;;18.20;99.90;;;;;;5037799;28;20195;-78
2023/07/13 01:25:50;;;;;;;6.07;2.00;;;18.40;99.90;;;;;;5032270;28;20203;-78
2023/07/13 01:28:17;;;;;;;4.05;1.50;;;18.10;99.90;;;;;;5030565;28;20246;-78
2023/07/13 01:30:47;;;;;;;5.60;1.77;;;18.20;99.90;;;;;;5012588;28;20207;-78
2023/07/13 01:33:16;;;;;;;5.57;2.13;;;18.20;99.90;;;;;;5030417;28;20199;-78
2023/07/13 01:35:43;;;;;;;7.10;2.00;;;18.20;99.90;;;;;;5027968;28;20237;-78
2023/07/13 01:38:36;;;;;;;3.30;1.80;;;18.00;99.90;;;;;;5015019;28;20223;-78
2023/07/13 01:41:04;;;;;;;4.80;1.83;;;17.90;99.90;;;;;;5030973;28;20226;-78
2023/07/13 01:43:32;;;;;;;4.25;1.95;;;18.00;99.90;;;;;;5031092;28;20203;-78
2023/07/13 01:46:00;;;;;;;4.35;1.80;;;17.90;99.90;;;;;;5030429;28;20199;-78
2023/07/13 01:48:28;;;;;;;5.78;2.00;;;17.70;99.90;;;;;;5014518;28;20215;-78
2023/07/13 01:50:55;;;;;;;3.00;1.83;;;17.70;99.90;;;;;;5037120;28;20202;-77
2023/07/13 01:53:23;;;;;;;6.40;2.17;;;17.80;99.90;;;;;;5032589;28;20559;-78
2023/07/13 01:55:52;;;;;;;8.23;2.17;;;17.80;99.90;;;;;;5033028;28;20567;-78
2023/07/13 01:58:19;;;;;;;5.15;2.22;;;18.00;99.90;;;;;;5031452;28;20219;-78
2023/07/13 02:00:49;;;;;;;4.18;1.70;;;18.00;99.90;;;;;;5030313;28;20215;-79
2023/07/13 02:03:18;;;;;;;4.25;1.48;;;18.00;99.90;;;;;;5029571;28;20206;-78
2023/07/13 02:05:45;;;;;;;3.03;1.70;;;18.00;99.90;;;;;;5018871;28;20221;-78
2023/07/13 02:08:13;;;;;;;3.22;1.60;;;18.10;99.90;;;;;;5014975;28;20219;-78
2023/07/13 02:10:40;;;;;;;7.13;1.75;;;17.90;99.90;;;;;;5014092;28;20677;-78
2023/07/13 02:13:09;;;;;;;3.90;1.98;;;17.90;99.90;;;;;;5017763;28;20203;-78
2023/07/13 02:15:40;;;;;;;5.60;1.70;;;17.90;99.90;;;;;;5014739;28;20195;-78
2023/07/13 02:18:08;;;;;;;3.92;1.50;;;17.80;99.90;;;;;;5030089;28;20234;-78
2023/07/13 02:20:36;;;;;;;3.92;1.60;;;17.70;99.90;;;;;;5030213;28;20222;-78
2023/07/13 02:23:03;;;;;;;5.70;1.50;;;17.50;99.90;;;;;;5023709;28;20207;-77
2023/07/13 02:25:31;;;;;;;7.45;2.10;;;17.50;99.90;;;;;;5032929;28;20210;-78
2023/07/13 02:27:58;;;;;;;2.03;1.23;;;17.50;99.90;;;;;;5026822;28;20219;-78
2023/07/13 02:30:29;;;;;;;2.33;1.13;;;17.70;99.90;;;;;;5027512;28;20195;-78
2023/07/13 02:32:57;;;;;;;4.40;1.80;;;17.50;99.90;;;;;;5041081;28;20676;-78
2023/07/13 02:35:24;;;;;;;3.58;1.55;;;17.70;99.90;;;;;;5030784;28;20195;-78
2023/07/13 02:37:52;;;;;;;3.38;1.58;;;17.60;99.90;;;;;;5014948;28;20218;-78
2023/07/13 02:40:20;;;;;;;4.10;1.52;;;17.50;99.90;;;;;;5015547;28;20219;-78
2023/07/13 02:42:48;;;;;;;2.17;1.33;;;17.40;99.90;;;;;;5015396;28;20203;-78
2023/07/13 02:45:15;;;;;;;3.95;1.48;;;17.50;99.90;;;;;;5037506;28;20202;-78
2023/07/13 02:47:44;;;;;;;3.45;1.33;;;17.20;99.90;;;;;;5031186;28;20218;-78
2023/07/13 02:50:12;;;;;;;3.55;1.60;;;17.40;99.90;;;;;;5015181;28;20195;-78
2023/07/13 02:52:39;;;;;;;4.22;1.50;;;17.20;99.90;;;;;;5035191;28;20202;-78
2023/07/13 02:55:07;;;;;;;3.83;1.92;;;17.30;99.90;;;;;;5015835;28;20715;-78
2023/07/13 02:57:35;;;;;;;2.80;1.70;;;17.40;99.90;;;;;;5031786;28;20234;-78
2023/07/13 03:00:06;;;;;;;5.10;1.50;;;17.10;99.90;;;;;;5014494;28;20195;-78
2023/07/13 03:02:33;;;;;;;4.10;1.50;;;17.10;99.90;;;;;;5024238;28;20187;-78
2023/07/13 03:05:02;;;;;;;4.28;1.65;;;17.20;99.90;;;;;;5015443;28;20207;-78
2023/07/13 03:07:31;;;;;;;5.47;1.60;;;17.30;99.90;;;;;;5031200;28;20222;-78
2023/07/13 03:09:59;;;;;;;2.85;1.60;;;17.10;99.90;;;;;;5015306;28;20203;-78
2023/07/13 03:12:34;;;;;;;3.53;1.63;;;17.20;99.90;;;;;;5015335;28;20198;-78
2023/07/13 03:15:07;;;;;;;5.20;2.08;;;17.10;99.90;;;;;;5027483;28;20199;-78
2023/07/13 03:17:37;;;;;;;3.35;1.60;;;17.10;99.90;;;;;;5031829;28;20226;-78
2023/07/13 03:20:09;;;;;;;4.53;1.65;;;17.10;99.90;;;;;;5043085;28;20206;-78
2023/07/13 03:22:37;;;;;;;4.25;1.85;;;16.90;99.90;;;;;;5033312;28;20203;-78
2023/07/13 03:25:05;;;;;;;4.70;2.05;;;16.90;99.90;;;;;;5034036;28;20700;-78
2023/07/13 03:27:33;;;;;;;4.45;1.67;;;16.70;99.90;;;;;;5014437;28;20246;-77
2023/07/13 03:30:00;;;;;;;3.88;1.40;;;16.60;99.90;;;;;;5011216;28;20645;-78
2023/07/13 03:32:27;;;;;;;9.57;2.15;;;16.70;99.90;;;;;;5030347;28;20206;-78
2023/07/13 03:34:55;;;;;;;2.20;1.70;;;16.60;99.90;;;;;;5029995;28;20226;-78
2023/07/13 03:37:24;;;;;;;7.40;2.25;;;16.80;99.90;;;;;;5030604;28;20215;-78
2023/07/13 03:39:52;;;;;;;5.63;2.25;;;16.60;99.90;;;;;;5030304;28;20203;-78
2023/07/13 03:42:21;;;;;;;3.63;1.73;;;16.60;99.90;;;;;;5031276;28;20219;-78
2023/07/13 03:44:52;;;;;;;4.07;1.70;;;16.50;99.90;;;;;;5015482;28;20198;-78
2023/07/13 03:47:20;;;;;;;3.78;1.70;;;16.70;99.90;;;;;;5026695;28;20226;-78
2023/07/13 03:49:48;;;;;;;4.15;1.90;;;16.80;99.90;;;;;;5029333;28;20195;-78
2023/07/13 03:52:15;;;;;;;6.30;2.22;;;16.70;99.90;;;;;;5013526;28;20199;-78
2023/07/13 03:54:50;;;;;;;3.85;1.90;;;16.80;99.90;;;;;;5028520;28;20230;-78
2023/07/13 03:57:20;;;;;;;4.45;2.00;;;16.90;99.90;;;;;;5033188;28;20230;-78
2023/07/13 03:59:48;;;;;;;8.90;2.03;;;16.70;99.90;;;;;;5018294;28;20206;-78
2023/07/13 04:02:15;;;;;;;5.18;1.60;;;16.70;99.90;;;;;;5034639;28;20206;-78
2023/07/13 04:04:43;;;;;;;7.00;1.83;;;16.80;99.90;;;;;;5034674;28;20195;-78
2023/07/13 04:07:10;;;;;;;4.82;1.92;;;16.70;99.90;;;;;;5017660;28;20206;-78
2023/07/13 04:09:40;;;;;;;5.10;2.03;;;16.80;99.90;;;;;;5018380;28;20662;-78
2023/07/13 04:12:10;;;;;;;3.42;2.15;;;16.80;99.90;;;;;;5039019;28;20202;-78
2023/07/13 04:14:38;;;;;;;5.13;2.40;;;16.80;99.90;;;;;;5034801;28;20217;-78
2023/07/13 04:17:06;;;;;;;5.40;2.17;;;16.90;99.90;;;;;;5031106;28;20200;-78
2023/07/13 04:19:33;;;;;;;4.10;2.10;;;16.80;99.90;;;;;;5035542;28;20192;-78
2023/07/13 04:22:01;;;;;;;4.15;1.88;;;16.80;99.90;;;;;;5017999;28;20219;-78
2023/07/13 04:24:28;;;;;;;5.43;2.30;;;16.70;99.90;;;;;;5033509;28;20218;-78
2023/07/13 04:26:59;;;;;;;7.00;2.22;;;16.60;99.90;;;;;;5018782;28;20210;-78
2023/07/13 04:29:28;;;;;;;6.95;2.38;;;16.60;99.90;;;;;;5036806;28;20199;-78
2023/07/13 04:31:55;;;;;;;5.43;2.13;;;16.70;99.90;;;;;;5038237;28;20191;-82
2023/07/13 04:34:23;;;;;;;5.97;2.25;;;16.60;99.90;;;;;;5032846;28;20565;-82
2023/07/13 04:37:07;;;;;;;4.00;2.22;;;16.60;99.90;;;;;;5035149;28;20207;-81
2023/07/13 04:39:34;;;;;;;5.97;1.95;;;16.70;99.90;;;;;;5018068;28;20214;-81
2023/07/13 04:42:01;;;;;;;4.28;2.10;;;17.00;99.90;;;;;;5038626;28;20210;-81
2023/07/13 04:44:30;;;;;;;6.63;2.10;;;16.90;99.90;;;;;;5018538;28;20199;-81
2023/07/13 04:46:58;;;;;;;6.03;2.00;;;16.90;99.90;;;;;;5035321;28;20203;-81
2023/07/13 04:49:25;;;;;;;4.25;1.70;;;17.10;99.90;;;;;;5018885;28;20199;-78
2023/07/13 04:51:54;;;;;;;5.68;1.83;;;16.80;99.90;;;;;;5036586;28;20202;-81
2023/07/13 04:54:22;;;;;;;3.58;1.60;;;16.80;99.90;;;;;;5033644;28;20194;-81
2023/07/13 04:56:49;;;;;;;5.07;1.90;;;16.90;99.90;;;;;;5032420;28;20210;-81
2023/07/13 04:59:17;;;;;;;5.97;1.58;;;17.20;99.90;;;;;;5030057;28;20214;-81
2023/07/13 05:01:59;;;;;;;6.30;2.17;;;16.90;99.90;;;;;;5032006;28;20212;-81
2023/07/13 05:04:47;;;;;;;4.78;1.90;;;16.80;99.90;;;;;;5029297;28;20210;-81
2023/07/13 05:07:15;;;;;;;8.00;2.08;;;16.90;99.90;;;;;;5022926;28;20211;-81
2023/07/13 05:09:42;;;;;;;5.05;1.95;;;16.90;99.90;;;;;;5040094;28;20207;-81
2023/07/13 05:12:10;;;;;;;4.80;2.05;;;16.60;99.90;;;;;;5041647;28;20199;-78
2023/07/13 05:14:38;;;;;;;4.80;2.00;;;16.90;99.90;;;;;;5032650;28;20195;-80
2023/07/13 05:17:07;;;;;;;4.63;2.17;;;16.60;99.90;;;;;;5031894;28;20327;-80
2023/07/13 05:19:38;;;;;;;4.38;1.85;;;16.90;99.90;;;;;;5034387;28;20199;-81
2023/07/13 05:22:06;;;;;;;5.03;2.30;;;16.90;99.90;;;;;;5032935;28;20199;-80
2023/07/13 05:24:33;;;;;;;5.13;2.50;;;16.60;99.90;;;;;;5032240;28;20194;-81
2023/07/13 05:27:01;;;;;;;7.47;2.38;;;16.70;99.90;;;;;;5035617;28;20386;-81
2023/07/13 05:29:29;;;;;;;5.43;2.00;;;16.80;99.90;;;;;;5021396;28;20218;-82
2023/07/13 05:31:57;;;;;;;5.07;2.17;;;16.90;99.90;;;;;;5044038;28;20221;-81
2023/07/13 05:34:26;;;;;;;4.10;1.98;;;16.80;99.90;;;;;;5030787;28;20199;-81
2023/07/13 05:36:53;;;;;;;8.07;2.67;;;16.80;99.90;;;;;;5029046;28;20198;-81
2023/07/13 05:39:21;;;;;;;4.70;2.55;;;16.70;99.90;;;;;;5033072;28;20218;-80
2023/07/13 05:41:48;;;;;;;6.00;2.78;;;16.90;99.90;;;;;;5022142;28;20227;-81
2023/07/13 05:44:16;;;;;;;5.43;2.30;;;17.10;99.90;;;;;;5029928;28;20203;-80
2023/07/13 05:46:43;;;;;;;9.07;2.58;;;17.20;99.90;;;;;;5018797;28;20222;-81
2023/07/13 05:49:31;;;;;;;9.13;2.95;;;17.30;99.90;;;;;;5014806;28;20219;-81
2023/07/13 05:52:00;;;;;;;6.85;2.80;;;17.50;99.90;;;;;;5034911;28;20194;-82
2023/07/13 05:54:28;;;;;;;5.78;2.55;;;17.80;99.90;;;;;;5031104;28;20210;-81
2023/07/13 05:56:55;;;;;;;6.35;2.47;;;17.40;99.90;;;;;;5029553;28;20207;-81
2023/07/13 05:59:23;;;;;;;6.82;2.63;;;17.60;99.90;;;;;;5032102;28;20223;-81
2023/07/13 06:01:52;;;;;;;5.43;2.70;;;17.70;99.90;;;;;;5017114;28;20195;-81
2023/07/13 06:04:19;;;;;;;5.65;2.17;;;17.40;99.90;;;;;;5011685;28;20207;-81
2023/07/13 06:06:49;;;;;;;6.93;2.33;;;17.60;99.90;;;;;;5033228;28;20195;-81
2023/07/13 06:09:16;;;;;;;6.55;3.22;;;17.20;99.90;;;;;;5015408;28;20223;-81
2023/07/13 06:11:44;;;;;;;5.55;2.53;;;17.50;99.90;;;;;;5034411;28;20198;-81
2023/07/13 06:14:11;;;;;;;6.63;3.08;;;17.60;99.90;;;;;;5025785;28;20604;-80
2023/07/13 06:16:38;;;;;;;11.63;3.20;;;17.80;99.90;;;;;;5016157;28;20203;-81
2023/07/13 06:19:06;;;;;;;9.15;2.67;;;17.90;99.90;;;;;;5026980;28;20214;-81
2023/07/13 06:21:33;;;;;;;6.35;2.80;;;17.40;99.90;;;;;;5031206;28;20199;-81
2023/07/13 06:24:09;;;;;;;10.40;2.80;;;17.10;99.90;;;;;;5005767;28;20218;-80
2023/07/13 06:26:37;;;;;;;6.00;2.80;;;17.10;99.90;;;;;;5025523;28;20193;-81
2023/07/13 06:29:04;;;;;;;6.80;2.67;;;17.50;99.90;;;;;;5014726;28;20233;-81
2023/07/13 06:31:32;;;;;;;5.15;3.20;;;17.60;99.90;;;;;;5031265;28;20214;-81
2023/07/13 06:33:59;;;;;;;9.38;3.50;;;17.90;99.90;;;;;;5028411;28;20206;-77
2023/07/13 06:36:28;;;;;;;7.38;3.15;;;17.90;99.90;;;;;;5013596;28;20210;-79
2023/07/13 06:38:55;;;;;;;6.63;2.88;;;17.90;99.90;;;;;;5024818;28;20227;-78
2023/07/13 06:41:25;;;;;;;7.45;3.50;;;18.20;99.90;;;;;;5026232;28;20230;-80
2023/07/13 06:43:53;;;;;;;6.75;3.38;;;17.50;99.90;;;;;;5014729;28;20222;-79
2023/07/13 06:46:35;;;;;;;5.13;2.72;;;17.60;99.90;;;;;;5012670;28;20199;-78
2023/07/13 06:49:09;;;;;;;7.25;3.30;;;18.40;99.90;;;;;;5013889;28;20231;-78
2023/07/13 06:51:51;;;;;;;5.55;3.40;;;18.60;99.90;;;;;;5028844;28;20199;-79
2023/07/13 06:54:19;;;;;;;7.05;3.92;;;18.40;99.90;;;;;;5015310;28;20203;-79
2023/07/13 06:56:48;;;;;;;11.60;4.20;;;17.80;99.90;;;;;;5024029;28;20202;-80
2023/07/13 06:59:15;;;;;;;7.38;4.57;;;17.80;99.90;;;;;;5031762;28;20218;-79
2023/07/13 07:01:45;;;;;;;11.55;4.15;;;18.10;99.90;;;;;;5030963;28;20210;-79
2023/07/13 07:04:15;;;;;;;7.43;3.50;;;18.30;99.90;;;;;;5024572;28;20218;-79
2023/07/13 07:06:48;;;;;;;9.95;3.92;;;18.90;99.90;;;;;;5030296;28;20205;-80
2023/07/13 07:09:23;;;;;;;9.90;3.35;;;19.30;99.90;;;;;;5029477;28;20739;-79
2023/07/13 07:11:52;;;;;;;11.48;3.88;;;19.20;99.90;;;;;;5028936;28;20206;-79
2023/07/13 07:14:20;;;;;;;10.43;3.70;;;18.80;99.90;;;;;;5029911;28;20556;-79
2023/07/13 07:16:47;;;;;;;8.75;3.78;;;18.60;99.90;;;;;;5012813;28;20206;-79
2023/07/13 07:19:14;;;;;;;7.40;3.42;;;18.90;99.90;;;;;;5028467;28;20230;-79
2023/07/13 07:21:42;;;;;;;8.25;3.58;;;19.40;99.90;;;;;;5021784;28;20214;-80
2023/07/13 07:24:10;;;;;;;7.78;3.63;;;19.00;99.90;;;;;;5015522;28;20215;-79
2023/07/13 07:26:37;;;;;;;8.10;3.65;;;19.40;99.90;;;;;;5028076;28;20198;-79
2023/07/13 07:29:06;;;;;;;9.25;3.58;;;18.90;99.90;;;;;;5026183;28;20230;-78
2023/07/13 07:31:34;;;;;;;6.25;3.80;;;18.70;99.90;;;;;;5027546;28;20648;-77
2023/07/13 07:34:01;;;;;;;7.28;3.90;;;18.80;99.90;;;;;;5011014;28;20366;-79
2023/07/13 07:36:30;;;;;;;10.00;4.45;;;18.90;99.90;;;;;;5030520;28;20677;-80
2023/07/13 07:38:57;;;;;;;7.97;3.95;;;18.60;99.90;;;;;;5015282;28;20252;-79
2023/07/13 07:41:25;;;;;;;6.93;4.03;;;18.20;99.90;;;;;;5029086;28;20226;-79
2023/07/13 07:43:52;;;;;;;7.57;4.28;;;18.20;99.90;;;;;;5030328;28;20218;-80
2023/07/13 07:46:21;;;;;;;10.45;4.43;;;18.30;99.90;;;;;;5029904;28;20222;-79
2023/07/13 07:48:48;;;;;;;8.13;4.50;;;18.30;99.90;;;;;;5030483;28;20223;-80
2023/07/13 07:51:16;;;;;;;8.73;4.30;;;18.40;99.90;;;;;;5023924;28;20195;-79
2023/07/13 07:54:14;;;;;;;8.02;3.85;;;18.60;99.90;;;;;;5027727;28;20199;-79
2023/07/13 07:56:42;;;;;;;8.52;4.10;;;18.70;99.90;;;;;;5023776;28;20213;-79
2023/07/13 07:59:09;;;;;;;7.10;3.15;;;18.80;99.90;;;;;;5013328;28;20226;-80
2023/07/13 08:01:38;;;;;;;7.38;3.65;;;18.90;99.90;;;;;;5010780;28;20521;-79
2023/07/13 08:04:06;;;;;;;9.23;4.35;;;19.30;99.90;;;;;;5023652;28;20211;-79
2023/07/13 08:06:34;;;;;;;10.73;4.30;;;19.00;99.90;;;;;;5026192;28;20195;-79
2023/07/13 08:09:03;;;;;;;6.45;4.57;;;19.00;99.90;;;;;;5011898;28;20230;-79
2023/07/13 08:11:31;;;;;;;8.10;3.60;;;19.40;99.90;;;;;;5010778;28;20199;-79
2023/07/13 08:13:58;;;;;;;7.38;3.35;;;19.10;99.90;;;;;;5022766;28;20199;-79
2023/07/13 08:16:26;;;;;;;5.50;3.13;;;18.90;99.90;;;;;;5012856;28;20210;-79
2023/07/13 08:18:59;;;;;;;8.25;3.75;;;18.90;99.90;;;;;;5018945;28;20227;-79
2023/07/13 08:21:28;;;;;;;11.45;3.58;;;18.90;99.90;;;;;;5012446;28;20286;-79
2023/07/13 08:23:56;;;;;;;7.40;3.50;;;19.00;99.90;;;;;;5012368;28;20226;-79
2023/07/13 08:26:24;;;;;;;6.03;3.90;;;19.10;99.90;;;;;;5025597;28;20211;-79
2023/07/13 08:28:51;;;;;;;10.68;4.10;;;19.20;99.90;;;;;;5024097;28;20237;-79
2023/07/13 08:31:21;;;;;;;6.32;3.45;;;19.10;99.90;;;;;;5020618;28;20203;-79
2023/07/13 08:33:49;;;;;;;7.13;3.10;;;19.00;99.90;;;;;;5027436;28;20202;-79
2023/07/13 08:36:18;;;;;;;5.97;3.65;;;18.90;99.90;;;;;;5010861;28;20207;-79
2023/07/13 08:38:50;;;;;;;5.15;3.60;;;19.40;99.90;;;;;;5025311;28;20231;-79
2023/07/13 08:41:19;;;;;;;5.43;3.72;;;19.30;99.90;;;;;;5010095;28;20214;-79
2023/07/13 08:43:51;;;;;;;5.45;3.33;;;19.60;99.90;;;;;;5014805;28;20223;-79
2023/07/13 08:46:24;;;;;;;6.45;3.72;;;19.70;99.90;;;;;;5039162;28;20214;-79
2023/07/13 08:48:54;;;;;;;8.85;3.95;;;19.60;99.90;;;;;;5028407;28;20223;-80
2023/07/13 08:51:34;;;;;;;7.22;3.83;;;19.60;99.90;;;;;;5029819;28;20198;-80
2023/07/13 08:54:04;;;;;;;8.70;3.88;;;19.50;99.90;;;;;;5011740;28;20206;-79
2023/07/13 08:56:33;;;;;;;6.45;3.25;;;19.70;99.90;;;;;;5031352;28;20199;-80
2023/07/13 08:59:08;;;;;;;6.82;3.42;;;19.70;99.90;;;;;;5026978;28;20219;-79
2023/07/13 09:02:01;;;;;;;4.82;2.92;;;19.60;99.90;;;;;;5029476;28;20191;-79
2023/07/13 09:04:35;;;;;;;7.80;3.20;;;20.10;99.90;;;;;;5032400;28;20688;-79
2023/07/13 09:07:10;;;;;;;8.50;3.67;;;20.00;99.90;;;;;;5028969;28;20195;-80
2023/07/13 09:09:50;;;;;;;5.78;3.33;;;20.10;99.90;;;;;;5029901;28;20653;-80
2023/07/13 09:12:24;;;;;;;7.03;3.47;;;20.20;99.90;;;;;;5006779;28;20207;-80
2023/07/13 09:15:04;;;;;;;6.30;3.20;;;19.90;99.90;;;;;;5027929;28;20934;-80
2023/07/13 09:17:40;;;;;;;7.78;3.72;;;19.60;99.90;;;;;;5030223;28;20219;-80
2023/07/13 09:20:20;;;;;;;6.53;3.00;;;19.70;99.90;;;;;;5031120;28;20203;-80
2023/07/13 09:22:50;;;;;;;7.22;2.97;;;19.90;99.90;;;;;;5034958;28;20693;-81
2023/07/13 09:25:28;;;;;;;5.43;2.72;;;20.10;99.90;;;;;;5030257;28;20231;-79
2023/07/13 09:28:01;;;;;;;8.32;3.55;;;20.20;99.90;;;;;;5034018;28;20584;-79
2023/07/13 09:30:36;;;;;;;11.68;4.00;;;20.20;99.90;;;;;;5038666;28;20206;-79
2023/07/13 09:33:04;;;;;;;6.85;3.22;;;20.10;99.90;;;;;;5013913;28;20207;-79
2023/07/13 09:35:32;;;;;;;4.03;2.88;;;20.10;99.90;;;;;;5014816;28;20202;-79
2023/07/13 09:38:12;;;;;;;6.55;3.05;;;19.90;99.90;;;;;;5031101;28;20226;-79
2023/07/13 09:40:50;;;;;;;5.28;3.38;;;19.80;99.90;;;;;;5020584;28;20211;-81
2023/07/13 09:43:20;;;;;;;6.18;3.50;;;19.90;99.90;;;;;;5016376;28;20194;-81
2023/07/13 09:45:48;;;;;;;8.15;3.85;;;20.00;99.90;;;;;;5012684;28;20230;-82
2023/07/13 09:48:18;;;;;;;6.68;3.90;;;20.20;99.90;;;;;;5031847;28;20229;-81
2023/07/13 09:50:46;;;;;;;5.55;4.07;;;20.20;99.90;;;;;;5030882;28;20199;-80
2023/07/13 09:53:20;;;;;;;8.52;4.72;;;20.10;99.90;;;;;;5015313;28;20199;-81
2023/07/13 09:55:49;;;;;;;8.35;4.43;;;20.00;99.90;;;;;;5017068;28;20198;-81
2023/07/13 09:58:19;;;;;;;6.38;4.60;;;20.00;99.90;;;;;;5018358;28;20227;-81
2023/07/13 10:00:56;;;;;;;8.55;4.28;;;20.30;99.90;;;;;;5016350;28;20565;-82
2023/07/13 10:03:27;;;;;;;5.78;4.35;;;20.50;99.90;;;;;;5020603;28;20210;-81
2023/07/13 10:05:55;;;;;;;7.28;4.10;;;20.70;99.90;;;;;;5032678;28;20229;-82
2023/07/13 10:08:27;;;;;;;7.28;4.10;;;20.80;99.90;;;;;;5018810;28;20226;-81
2023/07/13 10:10:59;;;;;;;5.07;3.08;;;21.00;99.90;;;;;;5033840;28;20206;-82
2023/07/13 10:13:36;;;;;;;7.05;3.90;;;20.90;99.90;;;;;;5034975;28;20199;-82
2023/07/13 10:16:06;;;;;;;7.18;4.45;;;20.40;99.90;;;;;;5033896;28;20677;-81
2023/07/13 10:18:47;;;;;;;8.38;4.03;;;20.30;99.90;;;;;;5044293;28;20233;-81
2023/07/13 10:21:18;;;;;;;7.53;4.60;;;20.40;99.90;;;;;;5033998;28;20195;-81
2023/07/13 10:23:50;;;;;;;8.95;4.00;;;20.70;99.90;;;;;;5034120;28;20187;-81
2023/07/13 10:26:23;;;;;;;8.20;3.92;;;20.70;99.90;;;;;;5013514;28;20191;-81
2023/07/13 10:28:55;;;;;;;5.38;3.20;;;20.90;99.90;;;;;;5029805;28;20230;-81
2023/07/13 10:31:23;;;;;;;6.22;3.35;;;20.60;99.90;;;;;;5033500;28;20657;-81
2023/07/13 10:33:51;;;;;;;7.18;4.03;;;20.70;99.90;;;;;;5017982;28;20572;-81
2023/07/13 10:36:29;;;;;;;4.50;2.92;;;20.90;99.90;;;;;;5015239;28;20205;-81
2023/07/13 10:39:00;;;;;;;5.13;3.38;;;21.00;99.90;;;;;;5031902;28;20219;-81
2023/07/13 10:41:34;;;;;;;8.48;3.30;;;20.80;99.90;;;;;;5018333;28;20661;-80
2023/07/13 10:44:03;;;;;;;6.55;3.33;;;20.50;99.90;;;;;;5024621;28;20195;-81
2023/07/13 10:46:33;;;;;;;9.75;3.45;;;20.60;99.90;;;;;;5016966;28;20195;-84
2023/07/13 10:49:05;;;;;;;6.63;4.00;;;20.80;99.90;;;;;;5017411;28;20214;-84
2023/07/13 10:51:33;;;;;;;5.53;3.60;;;20.70;99.90;;;;;;5030043;28;20198;-83
2023/07/13 10:54:27;;;;;;;6.93;3.88;;;20.60;99.90;;;;;;5032952;28;20199;-83
2023/07/13 10:57:16;;;;;;;7.65;3.83;;;20.70;99.90;;;;;;5029356;28;20207;-84
2023/07/13 10:59:47;;;;;;;6.63;4.07;;;20.70;99.90;;;;;;5027239;28;20206;-83
2023/07/13 11:02:26;;;;;;;6.00;3.47;;;21.10;99.90;;;;;;5030929;28;20199;-83
2023/07/13 11:04:54;;;;;;;8.70;3.50;;;21.10;99.90;;;;;;5027349;28;20219;-83
2023/07/13 11:07:24;;;;;;;8.82;3.50;;;21.10;99.90;;;;;;5027377;28;20199;-82
2023/07/13 11:09:55;;;;;;;9.25;3.78;;;21.10;99.90;;;;;;5013778;28;20207;-81
2023/07/13 11:12:50;;;;;;;8.13;3.20;;;20.90;99.90;;;;;;5031916;28;20199;-81
2023/07/13 11:15:34;;;;;;;7.18;3.78;;;20.80;99.90;;;;;;5030338;28;20203;-81
2023/07/13 11:18:19;;;;;;;5.13;3.10;;;21.10;99.90;;;;;;5011611;28;20230;-81
2023/07/13 11:20:50;;;;;;;6.90;3.20;;;20.90;99.90;;;;;;5011776;28;20214;-81
2023/07/13 11:23:31;;;;;;;5.10;3.40;;;21.10;99.90;;;;;;5030432;28;20206;-81
2023/07/13 11:26:05;;;;;;;7.50;3.20;;;21.10;99.90;;;;;;5029674;28;20233;-81
2023/07/13 11:28:38;;;;;;;5.03;3.05;;;21.50;99.90;;;;;;5016338;28;20222;-80
2023/07/13 11:31:16;;;;;;;5.15;2.60;;;21.70;99.90;;;;;;5034778;28;20216;-79
2023/07/13 11:34:01;;;;;;;7.25;2.58;;;22.10;99.90;;;;;;5034757;28;20202;-80
2023/07/13 11:36:37;;;;;;;6.40;3.00;;;22.10;99.90;;;;;;5031770;28;20582;-80
2023/07/13 11:39:13;;;;;;;4.85;2.90;;;22.00;99.90;;;;;;5021064;28;20209;-80
2023/07/13 11:41:51;;;;;;;3.97;2.53;;;21.80;99.90;;;;;;5051354;28;20202;-80
2023/07/13 11:44:20;;;;;;;5.40;2.72;;;21.90;99.90;;;;;;5051381;28;20194;-80
2023/07/13 11:46:51;;;;;;;5.63;2.92;;;21.90;99.90;;;;;;5033653;28;20211;-80
2023/07/13 11:49:19;;;;;;;4.45;2.60;;;22.00;99.90;;;;;;5015161;28;20222;-80
2023/07/13 11:51:49;;;;;;;6.25;2.65;;;22.30;99.90;;;;;;5018393;28;20211;-80
2023/07/13 11:54:29;;;;;;;5.28;2.90;;;22.10;99.90;;;;;;5017191;28;20206;-80
2023/07/13 11:57:01;;;;;;;4.65;2.78;;;22.20;99.90;;;;;;5021215;28;20202;-80
2023/07/13 11:59:31;;;;;;;3.90;2.65;;;22.30;99.90;;;;;;5031581;28;20223;-80
2023/07/13 12:01:59;;;;;;;6.50;3.08;;;22.30;98.00;;;;;;5015357;28;20203;-80
2023/07/13 12:04:31;;;;;;;8.25;2.97;;;22.50;98.50;;;;;;5009939;28;20203;-80
2023/07/13 12:07:04;;;;;;;4.85;2.20;;;22.60;97.70;;;;;;5010681;28;20206;-80
2023/07/13 12:09:36;;;;;;;4.90;2.42;;;22.60;97.70;;;;;;5029253;28;20676;-80
2023/07/13 12:12:12;;;;;;;3.88;2.35;;;22.70;96.90;;;;;;5019111;28;20207;-80
2023/07/13 12:14:40;;;;;;;3.35;2.38;;;22.70;96.80;;;;;;5013431;28;20196;-80
2023/07/13 12:17:14;;;;;;;5.53;2.78;;;22.90;97.10;;;;;;5014406;28;20212;-80
2023/07/13 12:19:42;;;;;;;6.43;3.10;;;22.70;97.50;;;;;;5017016;28;20211;-80
2023/07/13 12:22:13;;;;;;;4.22;2.50;;;22.80;97.90;;;;;;5035102;28;20191;-81
2023/07/13 12:24:42;;;;;;;5.07;2.50;;;22.70;97.10;;;;;;5036808;28;20210;-80
2023/07/13 12:27:22;;;;;;;6.78;2.88;;;22.70;95.50;;;;;;5020542;28;20198;-80
2023/07/13 12:29:53;;;;;;;5.32;2.47;;;23.00;95.00;;;;;;5036721;28;20199;-80
2023/07/13 12:32:21;;;;;;;5.60;2.45;;;23.30;95.60;;;;;;5020213;28;20198;-81
2023/07/13 12:34:54;;;;;;;4.47;2.33;;;23.30;95.30;;;;;;5036008;28;20199;-80
2023/07/13 12:37:21;;;;;;;6.25;2.50;;;23.00;95.20;;;;;;5035136;28;20198;-80
2023/07/13 12:39:50;;;;;;;6.03;2.58;;;23.00;96.40;;;;;;5023218;23;20247;-81
2023/07/13 12:42:27;;;;;;;7.10;2.67;;;23.20;95.70;;;;;;5017931;28;20206;-82
2023/07/13 12:44:57;;;;;;;5.38;2.20;;;23.50;94.40;;;;;;5009508;28;20200;-81
2023/07/13 12:47:25;;;;;;;5.55;2.60;;;23.80;94.00;;;;;;5001285;28;20207;-81
2023/07/13 12:49:56;;;;;;;5.25;2.40;;;23.60;93.10;;;;;;5022501;28;20226;-81
2023/07/13 12:52:30;;;;;;;5.22;2.47;;;22.90;93.70;;;;;;5010907;28;20210;-81
2023/07/13 12:55:00;;;;;;;4.10;2.10;;;23.00;94.00;;;;;;5010896;28;20199;-82
2023/07/13 12:57:32;;;;;;;3.53;2.45;;;23.10;94.40;;;;;;5013909;28;20219;-81
2023/07/13 13:00:00;;;;;;;3.33;2.45;;;23.10;94.00;;;;;;5021698;28;20246;-82
2023/07/13 13:02:31;;;;;;;6.80;2.72;;;23.50;93.80;;;;;;5010181;28;20208;-82